Guthrie Center, Iowa
Current Conditions -  °F | °C
As of 12:15 PM on Thursday 18 Dec 2014 (Local Time) from KPRO Reporting Station
Overcast Overcast  
Wind Chill: 28°   Ceiling: 5000
Heat Index: 28°   Visibility: 10mi
Dew Point: 21°   Wind: 0mph
Humidity: 77%   Direction: NA
Pressure: 30.25"   Gusts: NA
Location:  41.68°N, 94.5°W
Report Text: KPRO 181815Z AUTO 00000KT 10SM OVC050 M02/M06 A3025 RMK AO2 T10241060
Loading
Personal Weather Stations






























Interactive Weather Map New forecast layout! Learn more

10-Day Weather Forecast

Advertisements
Track Severe Weather on mobile